Home   Weather   Xinchang   Past weeks
Flag for China

Past Weather in Xinchang, Shanghai Municipality, China — Yesterday and Last 2 Weeks

Currently: 68 °F. Passing clouds. (Weather station: Shanghai Hongqiao Airport, China). See more current weather

Past Weather in Xinchang — Graph

°F

Xinchang Temperature Yesterday

Maximum temperature yesterday: 82 °F (at 1:00 pm)
Minimum temperature yesterday: 64 °F (at 2:00 am)
Average temperature yesterday: 74 °F

High & Low Weather Summary for the Past Weeks

 TemperatureHumidityPressure
High82 °F (May 17, 12:00 pm)100% (May 12, 7:30 pm)30.09 "Hg (May 12, 7:30 pm)
Low54 °F (May 14, 4:30 am)17% (May 18, 3:30 pm)29.80 "Hg (May 13, 12:30 am)
Average68 °F63%29.95 "Hg
* Reported May 8 7:30 pm — May 23 7:00 pm, Xinchang. Weather by CustomWeather, © 2022

Note: Actual official high and low records may vary slightly from our data, if they occured in-between our weather recording intervals... More about our weather records

Xinchang Weather History for the Previous 24 Hours

Scroll right to see more
 ConditionsComfort  
Time TempWeatherWind HumidityBarometerVisibility
7:00 pm
Mon, May 23
70 °FSprinkles. Passing clouds.13 mph64%29.95 "HgN/A
6:30 pm70 °FSunny.10 mph60%29.92 "Hg10 mi
6:00 pm70 °FScattered clouds.13 mph64%29.92 "HgN/A
5:30 pm70 °FPartly sunny.20 mph64%29.92 "HgN/A
4:30 pm72 °FPartly sunny.20 mph57%29.92 "HgN/A
4:00 pm72 °FPartly sunny.20 mph57%29.92 "HgN/A
3:00 pm75 °FPartly sunny.20 mph57%29.89 "HgN/A
2:30 pm77 °FScattered clouds.17 mph54%29.89 "HgN/A
2:00 pm79 °FScattered clouds.15 mph48%29.89 "HgN/A
1:30 pm79 °FScattered clouds.17 mph48%29.92 "HgN/A
1:00 pm79 °FPassing clouds.17 mph45%29.89 "HgN/A
12:30 pm79 °FPassing clouds.20 mph42%29.92 "HgN/A
12:00 pm79 °FSunny.17 mph42%29.92 "Hg10 mi
11:30 am77 °FSunny.17 mph47%29.92 "Hg10 mi
11:00 am75 °FPassing clouds.17 mph50%29.92 "HgN/A
10:30 am75 °FSunny.15 mph54%29.92 "Hg10 mi
10:00 am73 °FPassing clouds.15 mph61%29.92 "HgN/A
9:30 am73 °FScattered clouds.15 mph65%29.89 "HgN/A
9:00 am72 °FSunny.15 mph69%29.89 "Hg10 mi
8:30 am72 °FPassing clouds.13 mph69%29.89 "HgN/A
8:00 am72 °FSunny.15 mph69%29.89 "Hg10 mi
7:30 am70 °FPassing clouds.13 mph73%29.86 "HgN/A
7:00 am70 °FSunny.10 mph69%29.86 "Hg10 mi
6:30 am70 °FPassing clouds.8 mph69%29.86 "HgN/A
6:00 am70 °FPassing clouds.8 mph69%29.83 "HgN/A
5:30 am68 °FPassing clouds.10 mph73%29.83 "HgN/A
5:00 am70 °FSunny.8 mph64%29.83 "Hg10 mi
4:30 am68 °FClear.8 mph69%29.80 "Hg10 mi
4:00 am70 °FClear.10 mph69%29.80 "Hg10 mi
3:30 am70 °FClear.8 mph64%29.80 "Hg10 mi
3:00 am70 °FClear.10 mph64%29.80 "Hg10 mi
2:30 am70 °FClear.10 mph64%29.80 "Hg10 mi
2:00 am70 °FClear.13 mph64%29.80 "Hg10 mi
1:30 am70 °FClear.15 mph60%29.80 "Hg10 mi
1:00 am70 °FClear.10 mph60%29.80 "Hg10 mi
12:30 am70 °FClear.13 mph60%29.80 "Hg10 mi
12:00 am70 °FClear.13 mph60%29.80 "Hg10 mi
11:30 pm
Sun, May 22
72 °FClear.15 mph57%29.83 "Hg10 mi
11:00 pm72 °FClear.13 mph53%29.83 "Hg10 mi
10:30 pm72 °FClear.10 mph53%29.83 "Hg10 mi
10:00 pm72 °FClear.15 mph53%29.83 "Hg10 mi
9:30 pm72 °FClear.13 mph53%29.83 "Hg10 mi
8:30 pm73 °FClear.10 mph50%29.83 "Hg10 mi
8:00 pm73 °FClear.10 mph50%29.83 "Hg10 mi
Weather by CustomWeather, © 2022

See weather overview